Time;durP1;ratioP1;P1;durP2;ratioP2;P2;SDS_P1;SDS_P2;PMS_P1;PMS_P2;Temp;Humidity;BMP_temperature;BMP_pressure;BME280_temperature;BME280_humidity;BME280_pressure;Samples;Min_cycle;Max_cycle;Signal;HPM_P1;HPM_P2
2023/02/13 06:32:55;;;;;;;3.80;2.40;;;;;;;-4.30;84.54;101491.52;111179;1249;23128;-39
2023/02/13 06:35:23;;;;;;;7.70;3.70;;;;;;;-4.14;84.55;101492.23;112713;1249;23122;-40
2023/02/13 06:37:50;;;;;;;10.50;4.30;;;;;;;-4.02;84.38;101492.85;112651;1249;22396;-38
2023/02/13 06:40:19;;;;;;;16.00;6.10;;;;;;;-3.89;84.24;101488.56;112505;1248;22396;-40
2023/02/13 06:42:47;;;;;;;7.00;4.00;;;;;;;-3.76;84.04;101486.30;112065;1249;22427;-49
2023/02/13 06:45:14;;;;;;;8.20;3.00;;;;;;;-3.63;83.39;101488.42;112762;1249;22408;-48
2023/02/13 06:47:43;;;;;;;8.00;3.10;;;;;;;-3.56;83.05;101480.48;112771;1249;22382;-49
2023/02/13 06:50:10;;;;;;;12.80;3.90;;;;;;;-3.47;82.80;101474.45;112795;1249;22379;-49
2023/02/13 06:52:38;;;;;;;7.00;3.10;;;;;;;-3.43;82.72;101471.06;112846;1249;22735;-48
2023/02/13 06:55:06;;;;;;;6.90;3.30;;;;;;;-3.35;82.81;101468.20;112800;1249;22951;-47
2023/02/13 06:57:33;;;;;;;8.30;3.70;;;;;;;-3.27;82.54;101471.19;110369;1249;22342;-40
2023/02/13 07:00:04;;;;;;;5.40;3.10;;;;;;;-3.19;82.65;101473.33;112701;1248;22387;-40
2023/02/13 07:02:33;;;;;;;8.60;3.00;;;;;;;-3.12;82.48;101468.39;112771;1248;22366;-42
2023/02/13 07:05:02;;;;;;;6.90;3.20;;;;;;;-3.07;82.19;101464.50;112772;1249;22485;-40
2023/02/13 07:07:33;;;;;;;4.80;2.60;;;;;;;-3.05;82.26;101459.52;112842;1249;22984;-47
2023/02/13 07:10:02;;;;;;;;;;;;;;;-3.01;82.39;101459.09;112790;1249;22386;-48
2023/02/13 07:12:31;;;;;;;6.40;2.70;;;;;;;-2.98;82.41;101461.60;112879;1248;23327;-48
2023/02/13 07:14:58;;;;;;;8.40;3.70;;;;;;;-2.96;82.52;101461.23;112833;1249;23019;-48
2023/02/13 07:17:26;;;;;;;8.00;3.00;;;;;;;-2.94;82.58;101461.70;112469;1248;22324;-48
2023/02/13 07:19:54;;;;;;;8.00;3.20;;;;;;;-2.92;82.70;101461.48;112361;1249;22429;-48
2023/02/13 07:22:24;;;;;;;8.00;3.30;;;;;;;-2.90;82.51;101462.14;112707;1248;22609;-48
2023/02/13 07:24:52;;;;;;;7.50;3.30;;;;;;;-2.85;82.76;101458.02;112103;1248;22516;-46
2023/02/13 07:27:20;;;;;;;7.10;3.30;;;;;;;-2.75;82.87;101457.22;112122;1243;23341;-38
2023/02/13 07:29:47;;;;;;;5.40;2.50;;;;;;;-2.59;82.84;101456.98;112386;1249;22661;-45
2023/02/13 07:32:15;;;;;;;6.30;2.90;;;;;;;-2.41;82.54;101454.20;112747;1248;22199;-49
2023/02/13 07:34:42;;;;;;;7.90;3.50;;;;;;;-2.23;82.34;101449.80;112611;1249;22700;-38
2023/02/13 07:37:27;;;;;;;10.60;3.60;;;;;;;-2.02;82.24;101446.63;112725;1249;22912;-46
2023/02/13 07:39:54;;;;;;;5.60;2.90;;;;;;;-1.82;81.82;101439.60;112473;1249;22410;-38
2023/02/13 07:42:21;;;;;;;5.60;3.10;;;;;;;-1.61;81.27;101434.98;112429;1249;22468;-38
2023/02/13 07:44:51;;;;;;;7.00;3.50;;;;;;;-1.41;80.13;101435.54;112177;1249;25183;-43
2023/02/13 07:47:19;;;;;;;9.50;3.50;;;;;;;-1.25;79.19;101431.23;112501;1249;22490;-39
2023/02/13 07:49:48;;;;;;;14.70;2.90;;;;;;;-1.13;79.16;101433.61;112200;1248;22489;-39
2023/02/13 07:52:18;;;;;;;8.50;3.30;;;;;;;-0.93;78.90;101431.77;112494;1249;22491;-48
2023/02/13 07:54:51;;;;;;;6.50;2.80;;;;;;;-0.80;77.67;101431.09;112187;1248;22269;-41
2023/02/13 07:57:19;;;;;;;7.70;3.60;;;;;;;-0.74;77.15;101424.75;112344;1249;22422;-40
2023/02/13 07:59:48;;;;;;;7.10;3.20;;;;;;;-0.71;76.96;101426.83;112069;1249;22497;-48
2023/02/13 08:02:15;;;;;;;8.20;3.50;;;;;;;-0.68;77.12;101430.64;112801;1248;22777;-47
2023/02/13 08:04:45;;;;;;;7.40;2.90;;;;;;;-0.68;76.78;101430.66;112623;1248;22405;-48
2023/02/13 08:07:13;;;;;;;7.20;3.30;;;;;;;-0.68;77.14;101426.55;112494;1249;22392;-48
2023/02/13 08:12:26;;;;;;;9.10;3.40;;;;;;;-0.65;76.70;101422.94;112576;1248;22364;-39
2023/02/13 08:14:59;;;;;;;8.70;3.80;;;;;;;-0.60;77.23;101411.41;112656;1249;22404;-40
2023/02/13 08:17:38;;;;;;;5.80;3.30;;;;;;;-0.48;77.22;101414.03;112714;1240;22299;-39
2023/02/13 08:20:09;;;;;;;6.40;3.50;;;;;;;-0.37;76.62;101404.30;112701;1249;22470;-39
2023/02/13 08:22:36;;;;;;;8.70;3.80;;;;;;;-0.26;76.79;101399.11;112778;1249;22875;-39
2023/02/13 08:25:15;;;;;;;7.00;3.60;;;;;;;-0.14;76.47;101392.69;112746;1248;22938;-40
2023/02/13 08:27:48;;;;;;;8.30;3.40;;;;;;;-0.01;75.76;101383.02;112633;1249;22340;-40
2023/02/13 08:30:22;;;;;;;7.00;3.40;;;;;;;0.11;74.62;101388.69;112368;1249;22400;-39
2023/02/13 08:32:49;;;;;;;7.20;3.80;;;;;;;0.19;74.40;101386.08;112593;1248;22359;-40
2023/02/13 08:35:21;;;;;;;7.60;3.70;;;;;;;0.26;74.28;101381.51;112590;1249;22327;-39
2023/02/13 08:37:48;;;;;;;10.60;3.80;;;;;;;0.35;74.72;101374.45;112421;1249;23191;-39
2023/02/13 08:40:15;;;;;;;10.60;4.10;;;;;;;0.45;74.02;101374.70;112812;1248;22496;-41
2023/02/13 08:42:42;;;;;;;5.60;3.20;;;;;;;0.53;73.47;101372.75;112877;1248;22382;-40
2023/02/13 08:45:10;;;;;;;7.00;3.60;;;;;;;0.61;73.13;101376.13;112747;1248;22898;-40
2023/02/13 08:47:39;;;;;;;12.20;4.00;;;;;;;0.70;72.78;101383.36;112759;1249;22398;-39
2023/02/13 08:50:06;;;;;;;11.80;3.90;;;;;;;0.77;72.80;101394.92;112869;1248;22410;-40
2023/02/13 08:52:35;;;;;;;7.40;3.70;;;;;;;0.83;72.65;101400.06;112859;1249;23318;-40
2023/02/13 08:55:03;;;;;;;6.80;4.00;;;;;;;0.88;72.77;101404.61;112578;1248;23160;-39
2023/02/13 08:57:31;;;;;;;7.10;3.80;;;;;;;0.93;72.11;101403.73;112730;1249;22235;-47
2023/02/13 08:59:58;;;;;;;7.00;3.00;;;;;;;0.99;71.97;101397.51;112863;1249;22377;-38
2023/02/13 09:02:25;;;;;;;7.70;3.20;;;;;;;1.08;71.81;101392.17;112431;1249;22268;-39
2023/02/13 09:04:53;;;;;;;8.50;4.00;;;;;;;1.16;71.55;101381.09;112386;1248;22309;-39
2023/02/13 09:07:20;;;;;;;6.30;3.20;;;;;;;1.22;71.44;101376.45;112699;1249;23088;-40
2023/02/13 09:09:48;;;;;;;6.30;3.40;;;;;;;1.28;70.97;101372.30;112610;1249;22251;-39
2023/02/13 09:12:15;;;;;;;6.70;3.20;;;;;;;1.30;71.03;101360.91;112736;1249;23006;-39
2023/02/13 09:14:43;;;;;;;5.10;3.00;;;;;;;1.37;71.17;101351.80;112531;1248;22750;-48
2023/02/13 09:17:10;;;;;;;6.50;3.20;;;;;;;1.52;71.83;101340.60;112815;1249;22707;-48
2023/02/13 09:19:37;;;;;;;8.40;3.70;;;;;;;1.72;71.51;101346.81;112834;1249;22402;-39
2023/02/13 09:22:04;;;;;;;7.40;3.00;;;;;;;1.91;71.14;101339.00;112853;1249;22359;-39
2023/02/13 09:24:31;;;;;;;6.80;3.80;;;;;;;2.06;70.19;101352.52;112889;1248;22403;-39
2023/02/13 09:26:59;;;;;;;6.10;3.30;;;;;;;2.13;69.23;101350.30;112801;1249;22427;-41
2023/02/13 09:29:30;;;;;;;7.20;3.00;;;;;;;2.18;68.96;101357.23;112914;1248;22409;-40
2023/02/13 09:31:56;;;;;;;7.20;4.00;;;;;;;2.19;68.49;101347.14;112890;1248;22390;-48
2023/02/13 09:34:24;;;;;;;5.20;3.20;;;;;;;2.21;68.17;101340.36;112856;1248;23685;-39
2023/02/13 09:36:53;;;;;;;7.90;4.00;;;;;;;2.25;66.84;101343.29;112228;1248;22412;-40
2023/02/13 09:39:20;;;;;;;4.50;2.90;;;;;;;2.27;66.50;101332.43;112947;1248;22382;-40
2023/02/13 09:41:49;;;;;;;5.60;2.60;;;;;;;2.37;66.70;101321.70;112583;1248;22458;-48
2023/02/13 09:44:33;;;;;;;6.80;3.60;;;;;;;2.55;67.36;101323.77;112559;1249;22379;-47
2023/02/13 09:47:29;;;;;;;7.80;3.60;;;;;;;2.74;66.96;101324.70;112567;1248;22359;-48
2023/02/13 09:50:16;;;;;;;9.00;4.70;;;;;;;2.88;66.58;101324.67;112647;1249;23032;-48
2023/02/13 09:53:42;;;;;;;7.50;4.00;;;;;;;2.97;67.11;101303.58;112614;1248;22121;-48
2023/02/13 09:59:38;;;;;;;11.50;4.50;;;;;;;2.90;67.68;101295.52;112386;1248;22274;-40
2023/02/13 10:02:36;;;;;;;8.70;5.00;;;;;;;2.76;67.75;101295.17;112624;1249;22491;-39
2023/02/13 10:05:58;;;;;;;8.70;4.30;;;;;;;2.60;68.31;101291.48;112778;1248;22922;-40
2023/02/13 10:08:48;;;;;;;14.40;5.30;;;;;;;2.46;69.56;101280.30;112676;1249;22390;-40
2023/02/13 10:12:00;;;;;;;9.20;5.20;;;;;;;2.40;70.27;101281.55;112609;1248;22243;-39
2023/02/13 10:14:51;;;;;;;9.70;4.20;;;;;;;2.31;70.72;101272.02;112723;1249;22245;-40
2023/02/13 10:17:57;;;;;;;9.40;5.10;;;;;;;2.26;71.20;101271.41;112711;1249;23353;-40
2023/02/13 10:20:31;;;;;;;10.70;4.70;;;;;;;2.23;70.91;101263.86;111853;1257;22228;-38
2023/02/13 10:23:07;;;;;;;9.40;5.90;;;;;;;2.18;71.43;101257.92;112074;1257;22428;-39
2023/02/13 10:25:52;;;;;;;7.70;5.00;;;;;;;2.10;71.51;101256.86;111791;1257;22396;-39
2023/02/13 10:28:29;;;;;;;9.00;5.30;;;;;;;2.04;72.43;101251.55;111948;1257;22228;-40
2023/02/13 10:30:58;;;;;;;8.50;5.40;;;;;;;2.02;72.64;101244.73;111891;1257;22447;-40
2023/02/13 10:33:28;;;;;;;10.40;6.00;;;;;;;1.99;72.69;101242.72;111308;1257;23024;-40
2023/02/13 10:36:08;;;;;;;12.30;6.40;;;;;;;1.97;73.10;101237.61;111804;1257;22455;-47
2023/02/13 10:38:50;;;;;;;11.70;6.20;;;;;;;1.97;73.88;101235.39;111872;1257;22294;-39
2023/02/13 10:41:52;;;;;;;10.60;5.80;;;;;;;1.99;74.21;101229.32;111672;1257;22671;-40
2023/02/13 10:44:22;;;;;;;9.30;5.20;;;;;;;1.98;74.76;101216.54;111933;1257;22523;-40
2023/02/13 10:46:59;;;;;;;12.60;6.20;;;;;;;2.03;74.55;101225.71;111667;1257;22785;-39
2023/02/13 10:49:38;;;;;;;9.90;5.40;;;;;;;2.07;73.99;101217.79;111794;1257;24721;-48
2023/02/13 10:52:26;;;;;;;10.50;6.00;;;;;;;2.11;73.83;101222.98;111966;1257;22384;-48
2023/02/13 10:55:22;;;;;;;11.20;6.50;;;;;;;2.15;73.81;101214.08;112225;1249;22416;-47
2023/02/13 10:58:21;;;;;;;12.70;6.70;;;;;;;2.23;74.13;101213.92;112755;1249;22245;-47
2023/02/13 11:01:03;;;;;;;12.10;6.20;;;;;;;2.29;72.95;101209.56;112662;1249;22290;-47
2023/02/13 11:03:33;;;;;;;12.70;7.90;;;;;;;2.28;71.89;101213.84;112729;1249;22443;-48
2023/02/13 11:06:00;;;;;;;16.10;9.10;;;;;;;2.26;71.52;101207.35;112782;1248;23093;-49
2023/02/13 11:08:29;;;;;;;10.90;6.00;;;;;;;2.21;70.72;101201.63;112586;1249;22371;-47
2023/02/13 11:10:56;;;;;;;9.60;5.50;;;;;;;2.20;70.85;101202.59;112615;1249;23075;-47
2023/02/13 11:13:25;;;;;;;17.10;10.00;;;;;;;2.18;69.76;101198.02;112841;1248;22365;-47
2023/02/13 11:16:09;;;;;;;10.10;5.50;;;;;;;2.15;70.25;101189.44;112822;1249;22434;-47
2023/02/13 11:18:43;;;;;;;11.40;5.70;;;;;;;2.11;70.23;101194.98;112669;1249;22245;-39
2023/02/13 11:21:13;;;;;;;12.50;6.60;;;;;;;2.07;69.62;101193.05;112754;1249;22975;-39
2023/02/13 11:23:42;;;;;;;9.70;5.10;;;;;;;2.04;69.10;101184.63;112634;1249;22555;-38
2023/02/13 11:26:32;;;;;;;10.10;6.10;;;;;;;2.02;68.33;101178.33;112752;1249;22249;-39
2023/02/13 11:29:00;;;;;;;12.00;5.70;;;;;;;1.99;68.23;101176.64;112716;1249;22198;-40
2023/02/13 11:31:33;;;;;;;10.80;6.50;;;;;;;1.95;67.28;101175.77;112569;1249;22390;-39
2023/02/13 11:34:24;;;;;;;6.20;4.30;;;;;;;1.91;67.41;101163.00;112840;1249;22463;-39
2023/02/13 11:37:24;;;;;;;9.00;6.00;;;;;;;1.91;68.45;101160.73;112846;1249;23010;-39
2023/02/13 11:39:56;;;;;;;7.70;5.30;;;;;;;1.93;68.87;101149.30;112918;1249;23157;-40
2023/02/13 11:42:27;;;;;;;15.50;6.50;;;;;;;1.96;69.44;101142.59;112886;1249;22451;-40
2023/02/13 11:44:57;;;;;;;9.30;6.10;;;;;;;1.99;68.57;101144.81;112888;1249;22401;-40
2023/02/13 11:47:38;;;;;;;10.00;6.00;;;;;;;2.03;68.27;101149.95;112699;1248;22706;-40
2023/02/13 11:50:26;;;;;;;10.00;5.80;;;;;;;2.05;68.55;101137.02;112891;1249;22570;-41
2023/02/13 11:53:01;;;;;;;9.50;6.30;;;;;;;2.10;69.06;101135.17;112709;1249;23699;-40
2023/02/13 11:55:30;;;;;;;15.70;6.00;;;;;;;2.18;68.89;101126.23;112811;1249;22175;-40
2023/02/13 11:57:59;;;;;;;9.90;5.90;;;;;;;2.24;69.10;101133.23;112682;1249;22494;-40
2023/02/13 12:00:32;;;;;;;9.00;5.50;;;;;;;2.29;68.36;101128.32;112757;1249;22743;-39
2023/02/13 12:02:59;;;;;;;10.50;5.70;;;;;;;2.34;68.46;101130.64;112752;1234;22430;-39
2023/02/13 12:05:27;;;;;;;10.00;6.10;;;;;;;2.38;67.83;101123.25;112830;1249;22216;-40
2023/02/13 12:07:56;;;;;;;10.90;6.20;;;;;;;2.41;67.46;101128.00;112872;1249;22378;-40
2023/02/13 12:10:28;;;;;;;11.10;6.80;;;;;;;2.45;67.30;101122.14;112499;1249;22371;-39
2023/02/13 12:13:14;;;;;;;12.70;6.90;;;;;;;2.49;67.59;101116.48;112691;1249;22370;-40
2023/02/13 12:15:41;;;;;;;11.30;6.60;;;;;;;2.61;68.29;101110.70;112692;1249;22366;-40
2023/02/13 12:18:18;;;;;;;9.40;6.20;;;;;;;2.79;67.76;101113.55;112632;1249;22539;-39
2023/02/13 12:21:00;;;;;;;10.80;6.20;;;;;;;2.96;66.20;101112.91;112470;1249;22414;-40
2023/02/13 12:24:00;;;;;;;11.50;7.10;;;;;;;3.08;64.78;101108.23;112759;1249;22927;-40
2023/02/13 12:26:41;;;;;;;9.60;5.90;;;;;;;3.13;64.78;101105.35;112852;1249;23060;-40
2023/02/13 12:29:43;;;;;;;9.80;6.40;;;;;;;3.21;65.31;101105.00;112647;1249;22397;-41
2023/02/13 12:32:19;;;;;;;8.60;6.00;;;;;;;3.33;65.16;101102.43;112786;1249;22374;-40
2023/02/13 12:35:01;;;;;;;11.90;6.90;;;;;;;3.49;64.60;101102.59;113016;1249;22229;-42
2023/02/13 12:37:43;;;;;;;11.10;7.20;;;;;;;3.60;63.00;101094.75;112977;1249;22347;-41
2023/02/13 12:40:19;;;;;;;11.40;6.60;;;;;;;3.70;63.12;101086.33;112737;1249;22523;-42
2023/02/13 12:43:02;;;;;;;10.70;7.10;;;;;;;3.94;62.64;101072.47;111483;1249;22518;-48
2023/02/13 12:45:32;;;;;;;11.40;7.30;;;;;;;4.25;62.46;101070.39;111241;1249;26575;-50
2023/02/13 12:48:32;;;;;;;10.20;7.00;;;;;;;4.32;61.64;101074.44;110555;1249;22494;-47
2023/02/13 12:51:05;;;;;;;12.10;7.30;;;;;;;4.11;61.47;101082.09;112341;1249;22856;-48
2023/02/13 12:53:39;;;;;;;12.80;7.10;;;;;;;3.82;61.89;101084.24;111839;1249;25421;-47
2023/02/13 12:56:24;;;;;;;11.80;7.50;;;;;;;3.55;62.70;101084.54;112904;1249;22373;-40
2023/02/13 12:58:55;;;;;;;11.20;7.20;;;;;;;3.34;63.78;101082.64;111822;1249;23201;-38
2023/02/13 13:01:34;;;;;;;10.50;6.70;;;;;;;3.22;64.86;101086.08;111540;1249;24359;-39
2023/02/13 13:04:27;;;;;;;8.90;5.40;;;;;;;3.12;65.41;101079.83;110386;1249;22561;-40
2023/02/13 13:07:02;;;;;;;12.00;7.50;;;;;;;3.04;65.84;101077.41;110748;1249;22479;-40
2023/02/13 13:09:47;;;;;;;13.80;7.40;;;;;;;2.98;66.13;101075.77;113020;1249;23038;-40
2023/02/13 13:12:29;;;;;;;14.50;7.60;;;;;;;2.92;66.87;101077.05;112088;1249;22420;-50
